createdAt,value
2024-05-09T00:00:47.535Z,6.28
2024-05-09T00:03:35.602Z,6.25
2024-05-09T00:06:04.386Z,6.22
2024-05-09T00:08:32.567Z,6.18
2024-05-09T00:11:00.836Z,6.16
2024-05-09T00:13:28.911Z,6.12
2024-05-09T00:15:56.965Z,6.08
2024-05-09T00:18:25.004Z,6.04
2024-05-09T00:20:53.151Z,6.00
2024-05-09T00:23:21.486Z,5.96
2024-05-09T00:25:49.421Z,5.92
2024-05-09T00:28:17.330Z,5.89
2024-05-09T00:30:45.180Z,5.84
2024-05-09T00:33:13.321Z,5.80
2024-05-09T00:35:41.777Z,5.77
2024-05-09T00:38:11.081Z,5.72
2024-05-09T00:40:41.955Z,5.70
2024-05-09T00:43:12.864Z,5.68
2024-05-09T00:45:41.918Z,5.69
2024-05-09T00:48:13.971Z,5.68
2024-05-09T00:50:45.098Z,5.65
2024-05-09T00:53:14.947Z,5.64
2024-05-09T00:55:43.626Z,5.64
2024-05-09T00:58:14.734Z,5.63
2024-05-09T01:00:43.438Z,5.62
2024-05-09T01:03:13.508Z,5.58
2024-05-09T01:05:43.931Z,5.54
2024-05-09T01:08:12.877Z,5.51
2024-05-09T01:10:44.104Z,5.49
2024-05-09T01:13:14.109Z,5.48
2024-05-09T01:15:42.489Z,5.48
2024-05-09T01:18:12.399Z,5.46
2024-05-09T01:20:44.198Z,5.41
2024-05-09T01:23:15.742Z,5.37
2024-05-09T01:25:46.314Z,5.33
2024-05-09T01:28:15.234Z,5.28
2024-05-09T01:30:43.611Z,5.25
2024-05-09T01:33:12.606Z,5.25
2024-05-09T01:35:42.526Z,5.21
2024-05-09T01:38:17.356Z,5.19
2024-05-09T01:40:47.014Z,5.13
2024-05-09T01:43:16.162Z,5.06
2024-05-09T01:45:44.320Z,5.04
2024-05-09T01:48:12.444Z,5.03
2024-05-09T01:50:42.780Z,5.02
2024-05-09T01:53:14.179Z,5.00
2024-05-09T01:55:43.420Z,4.96
2024-05-09T01:58:11.527Z,4.93
2024-05-09T02:00:42.424Z,4.89
2024-05-09T02:03:15.912Z,4.90
2024-05-09T02:05:49.457Z,4.88
2024-05-09T02:08:22.018Z,4.84
2024-05-09T02:10:50.770Z,4.82
2024-05-09T02:13:19.104Z,4.80
2024-05-09T02:15:47.096Z,4.77
2024-05-09T02:18:15.241Z,4.78
2024-05-09T02:20:44.059Z,4.80
2024-05-09T02:23:13.851Z,4.78
2024-05-09T02:25:42.110Z,4.75
2024-05-09T02:28:10.083Z,4.71
2024-05-09T02:30:40.972Z,4.67
2024-05-09T02:33:12.459Z,4.64
2024-05-09T02:35:43.752Z,4.60
2024-05-09T02:38:13.059Z,4.58
2024-05-09T02:40:41.402Z,4.52
2024-05-09T02:43:12.640Z,4.49
2024-05-09T02:45:41.609Z,4.45
2024-05-09T02:48:13.853Z,4.41
2024-05-09T02:50:44.263Z,4.38
2024-05-09T02:53:13.504Z,4.35
2024-05-09T02:55:42.311Z,4.32
2024-05-09T02:58:11.076Z,4.32
2024-05-09T03:00:41.963Z,4.27
2024-05-09T03:03:13.807Z,4.24
2024-05-09T03:05:45.170Z,4.21
2024-05-09T03:08:13.937Z,4.17
2024-05-09T03:10:42.829Z,4.14
2024-05-09T03:13:14.165Z,4.13
2024-05-09T03:15:44.596Z,4.11
2024-05-09T03:18:13.418Z,4.08
2024-05-09T03:20:44.177Z,4.06
2024-05-09T03:23:12.697Z,4.04
2024-05-09T03:25:40.756Z,4.00
2024-05-09T03:28:08.713Z,3.98
2024-05-09T03:30:41.716Z,3.96
2024-05-09T03:33:17.434Z,3.95
2024-05-09T03:35:47.672Z,3.93
2024-05-09T03:38:15.971Z,3.93
2024-05-09T03:40:45.617Z,3.93
2024-05-09T03:43:13.977Z,3.93
2024-05-09T03:45:50.278Z,3.95
2024-05-09T03:48:18.413Z,3.95
2024-05-09T03:50:47.276Z,3.96
2024-05-09T03:53:15.764Z,4.00
2024-05-09T03:55:43.791Z,4.03
2024-05-09T03:58:14.403Z,4.07
2024-05-09T04:00:43.158Z,4.12
2024-05-09T04:03:12.809Z,4.16
2024-05-09T04:05:42.939Z,4.24
2024-05-09T04:08:15.283Z,4.33
2024-05-09T04:10:44.126Z,4.37
2024-05-09T04:13:12.134Z,4.43
2024-05-09T04:15:40.162Z,4.54
2024-05-09T04:18:08.301Z,4.63
2024-05-09T04:20:39.664Z,4.72
2024-05-09T04:23:13.833Z,4.83
2024-05-09T04:25:44.382Z,4.96
2024-05-09T04:28:13.499Z,5.10
2024-05-09T04:30:42.377Z,5.24
2024-05-09T04:33:13.134Z,5.36
2024-05-09T04:35:43.625Z,5.47
2024-05-09T04:38:13.453Z,5.60
2024-05-09T04:40:41.881Z,5.74
2024-05-09T04:43:18.685Z,5.87
2024-05-09T04:45:46.892Z,5.98
2024-05-09T04:48:16.661Z,6.07
2024-05-09T04:50:45.135Z,6.19
2024-05-09T04:53:16.082Z,6.30
2024-05-09T04:55:44.272Z,6.40
2024-05-09T04:58:12.558Z,6.51
2024-05-09T05:00:41.613Z,6.62
2024-05-09T05:03:14.493Z,6.73
2024-05-09T05:05:46.227Z,6.83
2024-05-09T05:08:16.457Z,6.93
2024-05-09T05:10:45.814Z,7.02
2024-05-09T05:13:22.368Z,7.10
2024-05-09T05:15:53.600Z,7.18
2024-05-09T05:18:22.387Z,7.26
2024-05-09T05:20:50.678Z,7.33
2024-05-09T05:23:20.258Z,7.39
2024-05-09T05:25:51.102Z,7.45
2024-05-09T05:28:19.524Z,7.52
2024-05-09T05:30:47.548Z,7.58
2024-05-09T05:33:18.405Z,7.66
2024-05-09T05:35:46.900Z,7.72
2024-05-09T05:38:15.027Z,7.77
2024-05-09T05:40:43.040Z,7.85
2024-05-09T05:43:16.894Z,7.93
2024-05-09T05:45:45.609Z,8.01
2024-05-09T05:48:17.111Z,8.10
2024-05-09T05:50:45.805Z,8.19
2024-05-09T05:53:14.274Z,8.25
2024-05-09T05:55:42.523Z,8.34
2024-05-09T05:58:11.508Z,8.44
2024-05-09T06:00:41.216Z,8.50
2024-05-09T06:03:11.005Z,8.57
2024-05-09T06:05:46.904Z,8.63
2024-05-09T06:08:15.361Z,8.70
2024-05-09T06:10:43.751Z,8.79
2024-05-09T06:13:12.999Z,8.87
2024-05-09T06:15:42.054Z,8.92
2024-05-09T06:18:11.701Z,8.95
2024-05-09T06:20:42.648Z,9.01
2024-05-09T06:23:12.416Z,9.09
2024-05-09T06:25:42.589Z,9.19
2024-05-09T06:28:11.514Z,9.27
2024-05-09T06:30:42.152Z,9.33
2024-05-09T06:33:13.922Z,9.41
2024-05-09T06:35:44.927Z,9.47
2024-05-09T06:38:13.554Z,9.56
2024-05-09T06:40:43.676Z,9.64
2024-05-09T06:43:13.764Z,9.69
2024-05-09T06:45:42.111Z,9.77
2024-05-09T06:48:10.496Z,9.86
2024-05-09T06:50:40.220Z,9.96
2024-05-09T06:53:09.390Z,10.03
2024-05-09T06:55:37.933Z,10.15
2024-05-09T06:58:07.054Z,10.27
2024-05-09T07:00:39.597Z,10.37
2024-05-09T07:03:11.610Z,10.45
2024-05-09T07:05:40.901Z,10.52
2024-05-09T07:08:09.021Z,10.62
2024-05-09T07:10:37.303Z,10.73
2024-05-09T07:13:10.032Z,10.85
2024-05-09T07:15:38.519Z,10.96
2024-05-09T07:18:20.087Z,11.04
2024-05-09T07:20:49.841Z,11.09
2024-05-09T07:23:19.019Z,11.18
2024-05-09T07:25:47.522Z,11.24
2024-05-09T07:28:19.680Z,11.34
2024-05-09T07:30:47.983Z,11.43
2024-05-09T07:33:21.516Z,11.55
2024-05-09T07:35:51.139Z,11.66
2024-05-09T07:38:19.275Z,11.78
2024-05-09T07:40:47.434Z,11.92
2024-05-09T07:43:15.993Z,12.02
2024-05-09T07:45:51.889Z,12.10
2024-05-09T07:53:39.941Z,12.57
2024-05-09T07:56:13.942Z,12.74
2024-05-09T07:58:43.699Z,12.86
2024-05-09T08:01:11.726Z,12.94
2024-05-09T08:03:40.050Z,13.04
2024-05-09T08:06:08.215Z,13.14
2024-05-09T08:08:35.982Z,13.25
2024-05-09T08:11:04.010Z,13.37
2024-05-09T08:13:32.123Z,13.49
2024-05-09T08:16:01.126Z,13.59
2024-05-09T08:18:29.395Z,13.66
2024-05-09T08:20:58.091Z,13.75
2024-05-09T08:23:25.953Z,13.79
2024-05-09T08:25:53.804Z,13.90
2024-05-09T08:28:21.675Z,14.08
2024-05-09T08:30:50.047Z,14.26
2024-05-09T08:33:18.237Z,14.46
2024-05-09T08:35:46.400Z,14.52
2024-05-09T08:38:14.318Z,14.62
2024-05-09T08:40:42.474Z,14.76
2024-05-09T08:43:12.021Z,14.91
2024-05-09T08:45:44.199Z,15.07
2024-05-09T08:48:15.494Z,15.17
2024-05-09T08:50:45.539Z,15.22
2024-05-09T08:53:16.915Z,15.30
2024-05-09T08:55:49.388Z,15.57
2024-05-09T08:58:20.613Z,15.84
2024-05-09T09:00:49.508Z,16.02
2024-05-09T09:03:19.608Z,16.19
2024-05-09T09:05:58.868Z,16.32
2024-05-09T09:08:26.840Z,16.43
2024-05-09T09:10:58.086Z,16.58
2024-05-09T09:13:26.769Z,16.79
2024-05-09T09:15:58.463Z,16.90
2024-05-09T09:18:27.782Z,16.95
2024-05-09T09:20:56.192Z,17.02
2024-05-09T09:23:24.062Z,17.15
2024-05-09T09:25:52.136Z,17.29
2024-05-09T09:28:23.128Z,17.44
2024-05-09T09:30:51.266Z,17.53
2024-05-09T09:33:19.614Z,17.56
2024-05-09T09:35:47.591Z,17.47
2024-05-09T09:38:18.150Z,17.41
2024-05-09T09:40:49.705Z,17.37
2024-05-09T09:43:20.069Z,17.42
2024-05-09T09:45:53.152Z,17.49
2024-05-09T09:48:22.752Z,17.68
2024-05-09T09:50:51.910Z,17.83
2024-05-09T09:53:20.393Z,17.90
2024-05-09T09:55:48.744Z,18.05
2024-05-09T09:58:17.646Z,18.20
2024-05-09T10:00:45.952Z,18.45
2024-05-09T10:03:14.162Z,18.68
2024-05-09T10:05:45.345Z,18.82
2024-05-09T10:08:16.073Z,19.05
2024-05-09T10:10:47.319Z,19.18
2024-05-09T10:13:16.203Z,19.45
2024-05-09T10:15:46.371Z,19.67
2024-05-09T10:18:15.261Z,19.94
2024-05-09T10:20:44.775Z,20.18
2024-05-09T10:23:44.245Z,20.35
2024-05-09T10:26:12.069Z,20.64
2024-05-09T10:28:44.314Z,20.91
2024-05-09T10:31:13.875Z,21.14
2024-05-09T10:33:48.151Z,21.35
2024-05-09T10:36:20.946Z,21.52
2024-05-09T10:38:49.845Z,21.66
2024-05-09T10:41:18.823Z,21.76
2024-05-09T10:43:47.768Z,21.90
2024-05-09T10:46:16.156Z,22.17
2024-05-09T10:48:45.131Z,22.36
2024-05-09T10:51:13.581Z,22.53
2024-05-09T10:53:42.818Z,22.61
2024-05-09T10:56:11.441Z,22.67
2024-05-09T10:58:39.301Z,22.73
2024-05-09T11:01:08.875Z,22.88
2024-05-09T11:03:38.174Z,23.07
2024-05-09T11:06:07.304Z,23.21
2024-05-09T11:08:36.084Z,23.34
2024-05-09T11:11:07.464Z,23.47
2024-05-09T11:13:38.252Z,23.57
2024-05-09T11:16:19.293Z,23.76
2024-05-09T11:18:55.968Z,24.12
2024-05-09T11:21:25.045Z,24.26
2024-05-09T11:23:53.278Z,24.23
2024-05-09T11:26:25.501Z,23.99
2024-05-09T11:28:53.531Z,23.67
2024-05-09T11:31:21.980Z,23.42
2024-05-09T11:33:50.471Z,23.28
2024-05-09T11:36:18.449Z,23.15
2024-05-09T11:38:46.310Z,23.11
2024-05-09T11:41:18.796Z,23.05
2024-05-09T11:43:47.021Z,23.06
2024-05-09T11:46:15.256Z,23.08
2024-05-09T11:48:43.653Z,22.93
2024-05-09T11:51:11.783Z,22.64
2024-05-09T11:53:39.654Z,22.33
2024-05-09T11:56:07.628Z,22.15
2024-05-09T11:58:36.972Z,22.41
2024-05-09T12:01:05.437Z,22.83
2024-05-09T12:03:35.225Z,23.25
2024-05-09T12:06:04.218Z,23.51
2024-05-09T12:08:32.376Z,23.66
2024-05-09T12:11:00.473Z,23.79
2024-05-09T12:13:28.790Z,23.95
2024-05-09T12:15:56.869Z,24.34
2024-05-09T12:18:24.795Z,24.69
2024-05-09T12:20:52.740Z,24.76
2024-05-09T12:23:20.585Z,24.53
2024-05-09T12:25:48.455Z,24.35
2024-05-09T12:28:16.583Z,24.05
2024-05-09T12:30:44.758Z,23.88
2024-05-09T12:33:13.914Z,23.71
2024-05-09T12:35:44.520Z,23.38
2024-05-09T12:38:15.382Z,22.92
2024-05-09T12:40:43.757Z,22.56
2024-05-09T12:43:12.175Z,22.27
2024-05-09T12:45:40.656Z,22.00
2024-05-09T12:48:12.317Z,21.78
2024-05-09T12:50:41.546Z,21.78
2024-05-09T12:53:09.985Z,22.12
2024-05-09T12:55:45.037Z,22.87
2024-05-09T12:58:23.752Z,23.66
2024-05-09T13:00:52.581Z,24.43
2024-05-09T13:03:21.898Z,25.25
2024-05-09T13:05:50.880Z,25.68
2024-05-09T13:08:19.539Z,25.82
2024-05-09T13:10:48.104Z,25.97
2024-05-09T13:13:16.616Z,26.03
2024-05-09T13:15:44.852Z,25.97
2024-05-09T13:18:12.798Z,25.80
2024-05-09T13:20:40.727Z,25.69
2024-05-09T13:23:08.914Z,25.90
2024-05-09T13:25:38.349Z,25.95
2024-05-09T13:28:07.678Z,25.81
2024-05-09T13:30:40.471Z,25.99
2024-05-09T13:33:12.049Z,26.34
2024-05-09T13:35:47.657Z,26.69
2024-05-09T13:38:19.803Z,27.03
2024-05-09T13:40:48.406Z,27.28
2024-05-09T13:43:17.795Z,27.50
2024-05-09T13:45:46.567Z,27.75
2024-05-09T13:48:14.720Z,27.95
2024-05-09T13:50:42.755Z,28.19
2024-05-09T13:53:10.728Z,28.27
2024-05-09T13:55:39.716Z,28.31
2024-05-09T13:58:09.140Z,28.42
2024-05-09T14:00:45.248Z,28.43
2024-05-09T14:03:18.916Z,28.52
2024-05-09T14:05:50.877Z,28.67
2024-05-09T14:08:22.245Z,28.85
2024-05-09T14:10:51.059Z,28.92
2024-05-09T14:13:19.936Z,29.01
2024-05-09T14:15:48.310Z,28.98
2024-05-09T14:18:16.655Z,29.09
2024-05-09T14:20:44.576Z,29.20
2024-05-09T14:23:12.638Z,29.36
2024-05-09T14:25:42.615Z,29.50
2024-05-09T14:28:13.092Z,29.65
2024-05-09T14:30:42.659Z,29.48
2024-05-09T14:33:11.620Z,29.59
2024-05-09T14:35:39.785Z,29.79
2024-05-09T14:38:08.743Z,29.81
2024-05-09T14:40:42.235Z,29.71
2024-05-09T14:43:13.671Z,29.70
2024-05-09T14:45:43.337Z,29.78
2024-05-09T14:48:14.134Z,29.71
2024-05-09T14:50:42.487Z,29.63
2024-05-09T14:53:11.960Z,29.87
2024-05-09T14:55:41.851Z,29.91
2024-05-09T14:58:12.114Z,29.93
2024-05-09T15:00:46.233Z,29.96
2024-05-09T15:03:19.719Z,30.24
2024-05-09T15:05:48.625Z,30.28
2024-05-09T15:08:18.112Z,30.22
2024-05-09T15:10:47.130Z,30.37
2024-05-09T15:13:16.863Z,30.37
2024-05-09T15:15:45.559Z,30.21
2024-05-09T15:18:14.602Z,30.15
2024-05-09T15:20:43.891Z,30.35
2024-05-09T15:23:11.991Z,30.58
2024-05-09T15:25:40.427Z,30.63
2024-05-09T15:28:08.841Z,30.62
2024-05-09T15:30:37.609Z,30.78
2024-05-09T15:33:07.085Z,30.67
2024-05-09T15:35:36.281Z,30.40
2024-05-09T15:38:04.911Z,30.38
2024-05-09T15:40:39.541Z,30.52
2024-05-09T15:43:10.932Z,30.49
2024-05-09T15:45:41.112Z,30.33
2024-05-09T15:48:10.735Z,30.33
2024-05-09T15:50:41.672Z,30.44
2024-05-09T15:53:12.461Z,30.55
2024-05-09T15:55:42.550Z,30.64
2024-05-09T15:58:11.303Z,30.67
2024-05-09T16:00:42.378Z,30.60
2024-05-09T16:03:13.972Z,30.46
2024-05-09T16:05:44.823Z,30.23
2024-05-09T16:08:13.631Z,29.97
2024-05-09T16:10:48.014Z,29.69
2024-05-09T16:13:17.186Z,29.38
2024-05-09T16:15:46.212Z,29.19
2024-05-09T16:18:14.462Z,29.02
2024-05-09T16:20:44.739Z,28.60
2024-05-09T16:23:14.317Z,27.90
2024-05-09T16:25:47.806Z,26.97
2024-05-09T16:28:16.739Z,26.02
2024-05-09T16:30:44.817Z,25.23
2024-05-09T16:33:13.119Z,24.52
2024-05-09T16:35:41.123Z,23.87
2024-05-09T16:38:09.033Z,23.26
2024-05-09T16:40:40.422Z,22.67
2024-05-09T16:43:11.144Z,22.20
2024-05-09T16:45:41.082Z,21.77
2024-05-09T16:48:09.203Z,21.49
2024-05-09T16:50:37.655Z,21.16
2024-05-09T16:53:06.665Z,20.75
2024-05-09T16:55:36.105Z,20.42
2024-05-09T16:58:06.363Z,20.16
2024-05-09T17:00:40.845Z,19.95
2024-05-09T17:03:14.807Z,19.78
2024-05-09T17:05:46.768Z,19.63
2024-05-09T17:08:18.058Z,19.45
2024-05-09T17:10:48.670Z,19.25
2024-05-09T17:13:17.541Z,19.07
2024-05-09T17:15:45.825Z,18.91
2024-05-09T17:18:14.221Z,18.79
2024-05-09T17:20:42.225Z,18.62
2024-05-09T17:23:13.656Z,18.44
2024-05-09T17:25:42.766Z,18.27
2024-05-09T17:28:11.228Z,18.15
2024-05-09T17:30:41.970Z,18.08
2024-05-09T17:33:12.478Z,17.95
2024-05-09T17:35:41.186Z,17.81
2024-05-09T17:38:09.586Z,17.64
2024-05-09T17:40:38.658Z,17.48
2024-05-09T17:43:09.516Z,17.35
2024-05-09T17:45:40.793Z,17.19
2024-05-09T17:48:11.185Z,17.08
2024-05-09T17:50:40.511Z,16.96
2024-05-09T17:53:10.339Z,16.84
2024-05-09T17:55:39.439Z,16.68
2024-05-09T17:58:07.967Z,16.49
2024-05-09T18:00:39.728Z,16.27
2024-05-09T18:03:12.210Z,16.02
2024-05-09T18:05:43.671Z,15.80
2024-05-09T18:08:12.904Z,15.56
2024-05-09T18:10:41.858Z,15.35
2024-05-09T18:13:11.516Z,15.16
2024-05-09T18:15:40.830Z,14.95
2024-05-09T18:18:10.812Z,14.74
2024-05-09T18:20:43.936Z,14.53
2024-05-09T18:23:16.478Z,14.32
2024-05-09T18:25:47.787Z,14.11
2024-05-09T18:28:17.062Z,13.90
2024-05-09T18:30:45.677Z,13.71
2024-05-09T18:33:14.173Z,13.49
2024-05-09T18:35:44.032Z,13.28
2024-05-09T18:38:12.161Z,13.09
2024-05-09T18:40:42.004Z,12.91
2024-05-09T18:43:11.922Z,12.72
2024-05-09T18:45:40.285Z,12.56
2024-05-09T18:48:10.040Z,12.39
2024-05-09T18:50:40.583Z,12.21
2024-05-09T18:53:11.349Z,12.05
2024-05-09T18:55:41.478Z,11.90
2024-05-09T18:58:09.556Z,11.74
2024-05-09T19:00:40.273Z,11.60
2024-05-09T19:03:13.260Z,11.45
2024-05-09T19:05:44.269Z,11.31
2024-05-09T19:08:14.679Z,11.17
2024-05-09T19:10:43.603Z,11.05
2024-05-09T19:13:13.576Z,10.93
2024-05-09T19:15:43.456Z,10.81
2024-05-09T19:18:13.929Z,10.69
2024-05-09T19:20:43.450Z,10.58
2024-05-09T19:23:12.309Z,10.48
2024-05-09T19:25:40.359Z,10.39
2024-05-09T19:28:08.619Z,10.29
2024-05-09T19:30:40.895Z,10.21
2024-05-09T19:33:13.106Z,10.12
2024-05-09T19:35:43.119Z,10.02
2024-05-09T19:38:12.142Z,9.92
2024-05-09T19:40:40.997Z,9.83
2024-05-09T19:43:09.324Z,9.76
2024-05-09T19:45:37.546Z,9.68
2024-05-09T19:48:06.707Z,9.59
2024-05-09T19:50:41.644Z,9.52
2024-05-09T19:53:14.221Z,9.46
2024-05-09T19:55:43.102Z,9.37
2024-05-09T19:58:12.470Z,9.30
2024-05-09T20:00:43.507Z,9.25
2024-05-09T20:03:14.832Z,9.18
2024-05-09T20:05:45.283Z,9.12
2024-05-09T20:08:13.793Z,9.08
2024-05-09T20:10:41.772Z,9.02
2024-05-09T20:13:09.891Z,8.98
2024-05-09T20:15:38.267Z,8.93
2024-05-09T20:18:07.369Z,8.89
2024-05-09T20:20:40.054Z,8.86
2024-05-09T20:23:12.308Z,8.82
2024-05-09T20:25:41.642Z,8.78
2024-05-09T20:28:10.523Z,8.72
2024-05-09T20:30:38.828Z,8.67
2024-05-09T20:33:08.425Z,8.62
2024-05-09T20:35:37.628Z,8.56
2024-05-09T20:38:05.932Z,8.51
2024-05-09T20:40:37.726Z,8.46
2024-05-09T20:43:09.277Z,8.41
2024-05-09T20:45:37.808Z,8.34
2024-05-09T20:48:07.112Z,8.28
2024-05-09T20:50:39.620Z,8.23
2024-05-09T20:53:14.719Z,8.20
2024-05-09T20:55:44.746Z,8.16
2024-05-09T20:58:13.728Z,8.11
2024-05-09T21:00:44.544Z,8.07
2024-05-09T21:03:16.640Z,8.03
2024-05-09T21:05:47.261Z,8.00
2024-05-09T21:08:15.940Z,7.95
2024-05-09T21:10:44.181Z,7.91
2024-05-09T21:13:12.443Z,7.89
2024-05-09T21:15:40.553Z,7.84
2024-05-09T21:18:08.846Z,7.81
2024-05-09T21:20:37.729Z,7.79
2024-05-09T21:23:05.972Z,7.75
2024-05-09T21:25:34.079Z,7.69
2024-05-09T21:28:03.426Z,7.67
2024-05-09T21:30:40.149Z,7.65
2024-05-09T21:33:13.636Z,7.58
2024-05-09T21:35:43.425Z,7.55
2024-05-09T21:38:14.124Z,7.52
2024-05-09T21:40:43.361Z,7.47
2024-05-09T21:43:11.669Z,7.42
2024-05-09T21:45:39.679Z,7.39
2024-05-09T21:48:08.437Z,7.36
2024-05-09T21:50:40.911Z,7.31
2024-05-09T21:53:11.892Z,7.27
2024-05-09T21:55:41.813Z,7.24
2024-05-09T21:58:10.568Z,7.20
2024-05-09T22:00:40.287Z,7.17
2024-05-09T22:03:10.096Z,7.14
2024-05-09T22:05:42.137Z,7.09
2024-05-09T22:08:11.159Z,7.06
2024-05-09T22:10:39.230Z,7.04
2024-05-09T22:13:08.405Z,7.04
2024-05-09T22:15:39.190Z,7.03
2024-05-09T22:18:10.382Z,7.01
2024-05-09T22:20:47.095Z,6.98
2024-05-09T22:23:15.996Z,6.95
2024-05-09T22:25:44.488Z,6.94
2024-05-09T22:28:16.254Z,6.93
2024-05-09T22:30:46.215Z,6.96
2024-05-09T22:33:15.359Z,6.95
2024-05-09T22:35:43.504Z,6.90
2024-05-09T22:38:11.454Z,6.86
2024-05-09T22:40:46.983Z,6.88
2024-05-09T22:43:23.824Z,6.92
2024-05-09T22:45:56.793Z,6.89
2024-05-09T22:48:25.655Z,6.81
2024-05-09T22:50:54.829Z,6.76
2024-05-09T22:53:24.752Z,6.74
2024-05-09T22:55:53.035Z,6.68
2024-05-09T22:58:21.570Z,6.63
2024-05-09T23:00:49.804Z,6.59
2024-05-09T23:03:21.488Z,6.56
2024-05-09T23:05:50.443Z,6.51
2024-05-09T23:08:18.411Z,6.45
2024-05-09T23:10:46.405Z,6.41
2024-05-09T23:13:14.442Z,6.37
2024-05-09T23:15:42.831Z,6.35
2024-05-09T23:18:11.369Z,6.31
2024-05-09T23:20:40.279Z,6.26
2024-05-09T23:23:10.353Z,6.22
2024-05-09T23:25:43.391Z,6.19
2024-05-09T23:28:11.708Z,6.16
2024-05-09T23:30:41.209Z,6.14
2024-05-09T23:33:14.879Z,6.12
2024-05-09T23:35:44.451Z,6.10
2024-05-09T23:38:13.345Z,6.07
2024-05-09T23:40:42.647Z,6.03
2024-05-09T23:43:12.520Z,6.00
2024-05-09T23:45:42.039Z,5.99
2024-05-09T23:48:10.904Z,5.98
2024-05-09T23:50:40.474Z,5.95
2024-05-09T23:53:10.156Z,5.93
2024-05-09T23:55:39.417Z,5.91
2024-05-09T23:58:09.459Z,5.90
